Time;durP1;ratioP1;P1;durP2;ratioP2;P2;SDS_P1;SDS_P2;PMS_P1;PMS_P2;Temp;Humidity;BMP_temperature;BMP_pressure;BME280_temperature;BME280_humidity;BME280_pressure;Samples;Min_cycle;Max_cycle;Signal;HPM_P1;HPM_P2
2024/01/10 00:02:06;;;;;;;40.03;19.63;;;;;;;;;;5084831;28;20233;-64
2024/01/10 00:04:34;;;;;;;34.90;18.87;;;;;;;;;;5083521;28;20224;-63
2024/01/10 00:07:01;;;;;;;36.40;19.57;;;;;;;;;;5087579;28;20213;-64
2024/01/10 00:09:28;;;;;;;36.43;18.43;;;;;;;;;;5069335;28;20209;-62
2024/01/10 00:11:55;;;;;;;35.23;18.87;;;;;;;;;;5083742;28;20685;-63
2024/01/10 00:14:23;;;;;;;33.43;16.97;;;;;;;;;;5088523;28;20716;-61
2024/01/10 00:16:50;;;;;;;32.27;16.27;;;;;;;;;;5080774;28;20266;-62
2024/01/10 00:19:17;;;;;;;37.03;17.20;;;;;;;;;;5088366;28;20669;-65
2024/01/10 00:21:45;;;;;;;34.00;18.90;;;;;;;;;;5088400;28;20228;-64
2024/01/10 00:24:12;;;;;;;39.10;19.43;;;;;;;;;;5083745;28;20710;-62
2024/01/10 00:26:39;;;;;;;42.80;20.27;;;;;;;;;;5087410;28;20204;-63
2024/01/10 00:29:07;;;;;;;41.03;20.97;;;;;;;;;;5086998;28;20215;-61
2024/01/10 00:31:34;;;;;;;40.17;20.83;;;;;;;;;;5082054;28;20220;-62
2024/01/10 00:34:02;;;;;;;39.13;21.07;;;;;;;;;;5089918;28;20204;-63
2024/01/10 00:36:29;;;;;;;37.53;21.30;;;;;;;;;;5083749;28;20209;-63
2024/01/10 00:38:56;;;;;;;40.73;20.37;;;;;;;;;;5065773;28;20716;-62
2024/01/10 00:41:24;;;;;;;39.53;20.93;;;;;;;;;;5086901;28;20239;-62
2024/01/10 00:43:51;;;;;;;43.47;21.93;;;;;;;;;;5084143;28;20245;-62
2024/01/10 00:46:18;;;;;;;40.07;22.30;;;;;;;;;;5086316;28;20205;-62
2024/01/10 00:48:46;;;;;;;41.87;21.60;;;;;;;;;;5082106;28;20275;-63
2024/01/10 00:51:13;;;;;;;37.70;20.43;;;;;;;;;;5089967;28;20350;-61
2024/01/10 00:53:42;;;;;;;44.30;22.13;;;;;;;;;;5086489;28;20262;-64
2024/01/10 00:56:09;;;;;;;39.33;21.17;;;;;;;;;;5082941;28;20201;-63
2024/01/10 00:58:37;;;;;;;36.47;19.90;;;;;;;;;;5083297;28;20205;-62
2024/01/10 01:01:05;;;;;;;38.43;19.43;;;;;;;;;;5081393;28;20226;-62
2024/01/10 01:03:32;;;;;;;35.27;19.80;;;;;;;;;;5087703;28;20758;-65
2024/01/10 01:06:00;;;;;;;37.20;19.43;;;;;;;;;;5090734;28;20789;-64
2024/01/10 01:08:27;;;;;;;34.43;19.63;;;;;;;;;;5089170;28;20261;-62
2024/01/10 01:10:55;;;;;;;34.77;18.73;;;;;;;;;;5087615;28;20225;-63
2024/01/10 01:13:22;;;;;;;36.47;19.97;;;;;;;;;;5081834;28;20250;-62
2024/01/10 01:15:49;;;;;;;35.17;19.63;;;;;;;;;;5082809;28;20286;-63
2024/01/10 01:18:17;;;;;;;35.57;19.93;;;;;;;;;;5081912;28;20210;-62
2024/01/10 01:20:44;;;;;;;38.90;19.67;;;;;;;;;;5083850;28;20249;-63
2024/01/10 01:23:11;;;;;;;35.87;19.83;;;;;;;;;;5081103;28;20675;-63
2024/01/10 01:25:39;;;;;;;36.87;19.00;;;;;;;;;;5087706;28;20221;-63
2024/01/10 01:28:07;;;;;;;35.03;19.87;;;;;;;;;;5088630;28;20235;-63
2024/01/10 01:30:34;;;;;;;37.93;19.50;;;;;;;;;;5084466;28;20233;-63
2024/01/10 01:33:04;;;;;;;33.80;19.27;;;;;;;;;;5089316;28;20207;-63
2024/01/10 01:35:32;;;;;;;38.47;19.83;;;;;;;;;;5082197;28;20246;-63
2024/01/10 01:37:59;;;;;;;33.30;19.23;;;;;;;;;;5086159;28;20222;-64
2024/01/10 01:40:27;;;;;;;39.83;19.73;;;;;;;;;;5089294;28;20753;-65
2024/01/10 01:42:54;;;;;;;36.27;19.50;;;;;;;;;;5087763;28;20672;-64
2024/01/10 01:45:21;;;;;;;40.67;20.27;;;;;;;;;;5068815;28;20693;-63
2024/01/10 01:47:50;;;;;;;38.03;19.87;;;;;;;;;;5086907;28;20205;-62
2024/01/10 01:50:17;;;;;;;34.73;20.07;;;;;;;;;;5083948;28;20661;-62
2024/01/10 01:52:45;;;;;;;30.53;17.83;;;;;;;;;;5087885;28;20869;-63
2024/01/10 01:55:12;;;;;;;34.33;18.00;;;;;;;;;;5081200;28;20255;-64
2024/01/10 01:57:39;;;;;;;35.87;19.87;;;;;;;;;;5081100;28;20243;-62
2024/01/10 02:00:08;;;;;;;34.83;20.37;;;;;;;;;;5083626;28;20216;-64
2024/01/10 02:02:36;;;;;;;39.80;19.90;;;;;;;;;;5064756;28;20222;-64
2024/01/10 02:05:04;;;;;;;37.70;20.00;;;;;;;;;;5075108;28;20216;-64
2024/01/10 02:07:31;;;;;;;32.13;18.97;;;;;;;;;;5079982;28;20196;-63
2024/01/10 02:09:59;;;;;;;35.43;20.07;;;;;;;;;;5063773;28;20205;-63
2024/01/10 02:12:26;;;;;;;35.40;20.30;;;;;;;;;;5090064;28;20206;-64
2024/01/10 02:14:53;;;;;;;34.33;18.77;;;;;;;;;;5077353;28;20212;-63
2024/01/10 02:17:21;;;;;;;36.63;19.93;;;;;;;;;;5082786;28;21852;-63
2024/01/10 02:19:48;;;;;;;38.30;19.87;;;;;;;;;;5079759;28;20237;-63
2024/01/10 02:22:15;;;;;;;32.87;19.80;;;;;;;;;;5086688;28;20230;-63
2024/01/10 02:24:43;;;;;;;38.73;19.87;;;;;;;;;;5084013;28;20689;-63
2024/01/10 02:27:11;;;;;;;39.37;21.23;;;;;;;;;;5075757;28;21143;-63
2024/01/10 02:29:38;;;;;;;33.60;19.13;;;;;;;;;;5078181;28;20260;-63
2024/01/10 02:32:05;;;;;;;34.10;19.77;;;;;;;;;;5079874;28;20235;-64
2024/01/10 02:34:33;;;;;;;38.13;21.03;;;;;;;;;;5080167;28;22904;-63
2024/01/10 02:37:00;;;;;;;35.90;19.17;;;;;;;;;;5081903;28;20255;-63
2024/01/10 02:39:28;;;;;;;37.13;20.13;;;;;;;;;;5082485;28;20295;-63
2024/01/10 02:41:55;;;;;;;35.07;20.43;;;;;;;;;;5080042;28;20219;-64
2024/01/10 02:44:23;;;;;;;40.33;20.10;;;;;;;;;;5088026;28;20208;-62
2024/01/10 02:46:50;;;;;;;36.77;20.60;;;;;;;;;;5082131;28;20584;-63
2024/01/10 02:49:18;;;;;;;42.27;21.63;;;;;;;;;;5086913;28;20208;-62
2024/01/10 02:51:45;;;;;;;39.30;19.97;;;;;;;;;;5085605;28;20226;-62
2024/01/10 02:54:13;;;;;;;34.50;20.40;;;;;;;;;;5089211;28;20567;-63
2024/01/10 02:56:40;;;;;;;37.07;19.87;;;;;;;;;;5072950;28;20217;-62
2024/01/10 02:59:07;;;;;;;40.50;20.43;;;;;;;;;;5087508;28;20287;-64
2024/01/10 03:01:35;;;;;;;36.83;20.57;;;;;;;;;;5082969;28;20223;-62
2024/01/10 03:04:02;;;;;;;38.73;20.90;;;;;;;;;;5083179;28;20238;-64
2024/01/10 03:06:30;;;;;;;37.90;22.00;;;;;;;;;;5084516;28;20200;-63
2024/01/10 03:08:57;;;;;;;40.60;21.23;;;;;;;;;;5081231;28;20224;-64
2024/01/10 03:11:24;;;;;;;43.90;22.37;;;;;;;;;;5089622;28;20219;-62
2024/01/10 03:13:52;;;;;;;41.97;19.73;;;;;;;;;;5083453;28;20204;-63
2024/01/10 03:16:20;;;;;;;34.90;19.93;;;;;;;;;;5080383;28;20285;-62
2024/01/10 03:18:47;;;;;;;34.23;20.17;;;;;;;;;;5091036;28;20200;-64
2024/01/10 03:21:15;;;;;;;38.27;20.10;;;;;;;;;;5087419;28;20220;-62
2024/01/10 03:23:42;;;;;;;37.03;19.53;;;;;;;;;;5089243;28;20257;-61
2024/01/10 03:26:10;;;;;;;38.07;19.47;;;;;;;;;;5087298;28;20688;-64
2024/01/10 03:28:38;;;;;;;35.20;19.73;;;;;;;;;;5083357;28;20567;-63
2024/01/10 03:31:05;;;;;;;35.90;19.90;;;;;;;;;;5082885;28;20247;-63
2024/01/10 03:33:33;;;;;;;30.60;18.63;;;;;;;;;;5085886;28;20208;-64
2024/01/10 03:36:00;;;;;;;36.10;20.07;;;;;;;;;;5080259;28;20222;-64
2024/01/10 03:38:27;;;;;;;33.83;19.53;;;;;;;;;;5085298;28;20212;-64
2024/01/10 03:40:55;;;;;;;34.73;19.63;;;;;;;;;;5083365;28;20227;-63
2024/01/10 03:43:22;;;;;;;28.93;18.20;;;;;;;;;;5084410;28;20627;-64
2024/01/10 03:45:49;;;;;;;33.63;19.73;;;;;;;;;;5086965;28;20782;-63
2024/01/10 03:48:17;;;;;;;37.73;20.23;;;;;;;;;;5090526;28;20398;-64
2024/01/10 03:50:44;;;;;;;34.77;19.27;;;;;;;;;;5087658;28;20272;-63
2024/01/10 03:53:11;;;;;;;33.20;18.90;;;;;;;;;;5089129;28;20257;-63
2024/01/10 03:55:39;;;;;;;33.67;19.83;;;;;;;;;;5086462;28;20317;-64
2024/01/10 03:58:06;;;;;;;39.03;20.07;;;;;;;;;;5086332;28;20243;-64
2024/01/10 04:00:34;;;;;;;35.83;19.67;;;;;;;;;;5079880;28;20228;-64
2024/01/10 04:03:02;;;;;;;35.43;20.27;;;;;;;;;;5086476;28;20216;-63
2024/01/10 04:05:30;;;;;;;40.00;21.50;;;;;;;;;;5086505;28;20220;-64
2024/01/10 04:07:58;;;;;;;35.73;20.47;;;;;;;;;;5087448;28;20719;-63
2024/01/10 04:10:25;;;;;;;34.60;20.20;;;;;;;;;;5071502;28;20263;-63
2024/01/10 04:12:52;;;;;;;35.07;20.50;;;;;;;;;;5087152;28;20197;-63
2024/01/10 04:15:20;;;;;;;36.03;19.47;;;;;;;;;;5085865;28;20205;-64
2024/01/10 04:17:47;;;;;;;32.33;19.67;;;;;;;;;;5086799;28;20200;-64
2024/01/10 04:20:15;;;;;;;35.43;20.07;;;;;;;;;;5086821;28;20216;-62
2024/01/10 04:22:43;;;;;;;34.73;19.23;;;;;;;;;;5087858;28;20616;-63
2024/01/10 04:25:11;;;;;;;34.73;20.77;;;;;;;;;;5071385;28;20220;-62
2024/01/10 04:27:39;;;;;;;41.03;21.53;;;;;;;;;;5087790;28;20196;-62
2024/01/10 04:30:06;;;;;;;37.70;20.53;;;;;;;;;;5086059;28;20204;-63
2024/01/10 04:32:35;;;;;;;32.07;19.80;;;;;;;;;;5080009;28;20223;-64
2024/01/10 04:35:02;;;;;;;32.67;18.90;;;;;;;;;;5083044;28;20323;-62
2024/01/10 04:37:30;;;;;;;35.00;20.23;;;;;;;;;;5070574;28;20650;-63
2024/01/10 04:39:58;;;;;;;30.43;18.57;;;;;;;;;;5086729;28;20941;-63
2024/01/10 04:42:25;;;;;;;31.70;19.10;;;;;;;;;;5083222;28;20205;-63
2024/01/10 04:44:53;;;;;;;33.40;19.17;;;;;;;;;;5083172;28;20236;-62
2024/01/10 04:47:20;;;;;;;36.00;18.23;;;;;;;;;;5068644;28;20197;-63
2024/01/10 04:49:47;;;;;;;36.63;19.83;;;;;;;;;;5088600;28;20291;-62
2024/01/10 04:52:15;;;;;;;34.40;20.07;;;;;;;;;;5086816;28;20249;-62
2024/01/10 04:54:42;;;;;;;39.27;21.23;;;;;;;;;;5085130;28;20204;-62
2024/01/10 04:57:09;;;;;;;36.77;21.73;;;;;;;;;;5087793;28;20250;-62
2024/01/10 04:59:37;;;;;;;32.23;19.27;;;;;;;;;;5085645;28;20215;-62
2024/01/10 05:02:05;;;;;;;34.17;17.80;;;;;;;;;;5081338;28;20220;-62
2024/01/10 05:04:33;;;;;;;30.40;17.63;;;;;;;;;;5066561;28;20238;-63
2024/01/10 05:07:00;;;;;;;28.90;16.63;;;;;;;;;;5082191;28;20281;-62
2024/01/10 05:09:27;;;;;;;30.87;17.97;;;;;;;;;;5081699;28;20254;-62
2024/01/10 05:11:54;;;;;;;34.50;19.53;;;;;;;;;;5080495;28;20220;-62
2024/01/10 05:14:22;;;;;;;37.83;21.53;;;;;;;;;;5074498;28;20201;-65
2024/01/10 05:16:50;;;;;;;37.30;20.63;;;;;;;;;;5075982;28;20209;-64
2024/01/10 05:19:17;;;;;;;33.23;18.53;;;;;;;;;;5081920;28;20223;-62
2024/01/10 05:21:45;;;;;;;36.97;18.97;;;;;;;;;;5081091;28;20220;-62
2024/01/10 05:24:12;;;;;;;30.70;19.00;;;;;;;;;;5084114;28;20298;-62
2024/01/10 05:26:40;;;;;;;34.77;21.30;;;;;;;;;;5086246;28;20880;-62
2024/01/10 05:29:11;;;;;;;34.60;19.97;;;;;;;;;;5086120;28;20201;-63
2024/01/10 05:31:40;;;;;;;30.30;18.00;;;;;;;;;;5081902;28;20228;-64
2024/01/10 05:34:07;;;;;;;29.10;17.67;;;;;;;;;;5085175;28;20207;-63
2024/01/10 05:36:37;;;;;;;31.87;18.67;;;;;;;;;;5085165;28;20740;-63
2024/01/10 05:39:09;;;;;;;36.13;19.17;;;;;;;;;;5084592;28;20208;-63
2024/01/10 05:41:39;;;;;;;37.23;20.43;;;;;;;;;;5068310;28;20221;-64
2024/01/10 05:46:48;;;;;;;36.20;19.63;;;;;;;;;;5081225;28;21321;-63
2024/01/10 05:49:17;;;;;;;46.97;22.57;;;;;;;;;;5088779;28;20199;-64
2024/01/10 05:51:44;;;;;;;41.50;22.07;;;;;;;;;;5083073;28;20311;-62
2024/01/10 05:54:12;;;;;;;44.27;22.57;;;;;;;;;;5086997;28;20216;-62
2024/01/10 05:56:39;;;;;;;45.03;22.20;;;;;;;;;;5086921;28;20209;-64
2024/01/10 05:59:07;;;;;;;38.90;20.73;;;;;;;;;;5068287;28;20201;-65
2024/01/10 06:01:34;;;;;;;32.13;18.97;;;;;;;;;;5085683;28;20220;-64
2024/01/10 06:04:02;;;;;;;36.50;20.83;;;;;;;;;;5085884;28;20207;-62
2024/01/10 06:06:29;;;;;;;31.10;17.40;;;;;;;;;;5086236;28;20220;-63
2024/01/10 06:08:57;;;;;;;33.37;18.40;;;;;;;;;;5080710;28;20204;-63
2024/01/10 06:11:25;;;;;;;30.50;17.53;;;;;;;;;;5067929;28;20230;-65
2024/01/10 06:13:53;;;;;;;39.13;20.20;;;;;;;;;;5069536;28;20195;-64
2024/01/10 06:16:25;;;;;;;33.50;19.23;;;;;;;;;;5084818;28;20212;-64
2024/01/10 06:18:54;;;;;;;34.97;19.83;;;;;;;;;;5086624;28;20208;-64
2024/01/10 06:21:23;;;;;;;35.20;20.77;;;;;;;;;;5080928;28;20462;-63
2024/01/10 06:23:51;;;;;;;36.10;21.57;;;;;;;;;;5068239;28;20654;-62
2024/01/10 06:26:19;;;;;;;40.47;23.27;;;;;;;;;;5082740;28;20344;-64
2024/01/10 06:28:46;;;;;;;43.87;23.53;;;;;;;;;;5079157;28;20283;-62
2024/01/10 06:31:14;;;;;;;44.23;25.17;;;;;;;;;;5086711;28;20314;-62
2024/01/10 06:33:41;;;;;;;49.47;24.70;;;;;;;;;;5086898;28;20201;-62
2024/01/10 06:36:08;;;;;;;40.53;22.13;;;;;;;;;;5083506;28;20212;-62
2024/01/10 06:38:36;;;;;;;41.63;21.80;;;;;;;;;;5085598;28;20239;-62
2024/01/10 06:41:10;;;;;;;40.67;21.83;;;;;;;;;;5086114;28;20268;-64
2024/01/10 06:43:44;;;;;;;43.30;22.20;;;;;;;;;;5086333;28;20199;-62
2024/01/10 06:46:13;;;;;;;45.77;22.97;;;;;;;;;;5069229;28;20227;-64
2024/01/10 06:48:43;;;;;;;48.13;23.60;;;;;;;;;;5077395;28;20250;-62
2024/01/10 06:51:16;;;;;;;41.93;22.57;;;;;;;;;;5085693;28;20234;-63
2024/01/10 06:53:45;;;;;;;38.47;22.17;;;;;;;;;;5086700;28;20222;-62
2024/01/10 06:56:14;;;;;;;36.93;20.37;;;;;;;;;;5087211;28;20215;-62
2024/01/10 06:58:42;;;;;;;38.10;21.27;;;;;;;;;;5088704;28;20200;-62
2024/01/10 07:01:13;;;;;;;39.23;21.37;;;;;;;;;;5089975;28;20238;-62
2024/01/10 07:03:42;;;;;;;38.77;21.97;;;;;;;;;;5080916;28;20209;-64
2024/01/10 07:06:14;;;;;;;36.07;21.07;;;;;;;;;;5083740;28;20594;-62
2024/01/10 07:08:44;;;;;;;40.33;22.60;;;;;;;;;;5086615;28;20208;-62
2024/01/10 07:11:12;;;;;;;38.40;22.80;;;;;;;;;;5086188;28;20223;-63
2024/01/10 07:13:39;;;;;;;39.37;23.60;;;;;;;;;;5083051;28;20654;-63
2024/01/10 07:16:07;;;;;;;41.13;22.83;;;;;;;;;;5068231;28;20212;-62
2024/01/10 07:18:34;;;;;;;38.63;20.87;;;;;;;;;;5067188;28;20675;-64
2024/01/10 07:21:01;;;;;;;36.47;21.67;;;;;;;;;;5081693;28;20238;-63
2024/01/10 07:23:30;;;;;;;42.03;23.37;;;;;;;;;;5068864;28;20210;-63
2024/01/10 07:25:58;;;;;;;47.57;25.80;;;;;;;;;;5083180;28;20742;-64
2024/01/10 07:28:25;;;;;;;43.83;23.70;;;;;;;;;;5087196;28;20290;-62
2024/01/10 07:30:53;;;;;;;36.47;21.60;;;;;;;;;;5089603;28;20220;-64
2024/01/10 07:33:23;;;;;;;35.33;18.97;;;;;;;;;;5087773;28;20323;-65
2024/01/10 07:35:52;;;;;;;34.07;19.23;;;;;;;;;;5084749;28;20261;-65
2024/01/10 07:38:20;;;;;;;35.20;20.47;;;;;;;;;;5084407;28;20204;-63
2024/01/10 07:40:48;;;;;;;34.10;19.63;;;;;;;;;;5090155;28;20254;-63
2024/01/10 07:43:16;;;;;;;33.87;18.87;;;;;;;;;;5085023;28;20295;-61
2024/01/10 07:45:46;;;;;;;38.17;21.60;;;;;;;;;;5087155;28;20224;-64
2024/01/10 07:48:14;;;;;;;38.00;20.30;;;;;;;;;;5084359;28;20201;-64
2024/01/10 07:50:42;;;;;;;39.90;21.63;;;;;;;;;;5072943;28;20296;-64
2024/01/10 07:53:10;;;;;;;35.87;19.80;;;;;;;;;;5093068;28;20208;-62
2024/01/10 07:55:38;;;;;;;41.07;20.80;;;;;;;;;;5083076;28;20657;-63
2024/01/10 07:58:05;;;;;;;36.83;20.50;;;;;;;;;;5088956;28;20293;-63
2024/01/10 08:00:33;;;;;;;37.87;21.13;;;;;;;;;;5087324;28;20224;-64
2024/01/10 08:03:01;;;;;;;32.57;19.93;;;;;;;;;;5084328;28;20853;-63
2024/01/10 08:05:28;;;;;;;39.67;21.67;;;;;;;;;;5082861;28;20283;-63
2024/01/10 08:07:56;;;;;;;37.10;20.87;;;;;;;;;;5079898;28;20246;-64
2024/01/10 08:10:27;;;;;;;36.47;20.10;;;;;;;;;;5080371;28;20556;-64
2024/01/10 08:13:02;;;;;;;36.20;21.20;;;;;;;;;;5080110;28;20210;-64
2024/01/10 08:15:30;;;;;;;33.93;19.30;;;;;;;;;;5070638;28;20223;-64
2024/01/10 08:17:57;;;;;;;34.27;20.07;;;;;;;;;;5084869;28;20203;-64
2024/01/10 08:20:25;;;;;;;37.37;21.03;;;;;;;;;;5088421;28;20220;-65
2024/01/10 08:22:57;;;;;;;39.37;21.10;;;;;;;;;;5090459;28;20212;-62
2024/01/10 08:25:25;;;;;;;40.53;22.47;;;;;;;;;;5086375;28;20571;-62
2024/01/10 08:27:53;;;;;;;42.63;22.63;;;;;;;;;;5087292;28;20196;-63
2024/01/10 08:30:21;;;;;;;40.33;22.83;;;;;;;;;;5085496;28;20343;-65
2024/01/10 08:32:49;;;;;;;40.67;22.90;;;;;;;;;;5069045;28;20204;-64
2024/01/10 08:35:16;;;;;;;43.60;21.70;;;;;;;;;;5083002;28;20272;-63
2024/01/10 08:37:44;;;;;;;39.53;22.37;;;;;;;;;;5081818;28;20225;-64
2024/01/10 08:40:14;;;;;;;36.70;20.93;;;;;;;;;;5084524;28;20193;-63
2024/01/10 08:42:42;;;;;;;39.13;20.93;;;;;;;;;;5083495;28;20192;-62
2024/01/10 08:45:11;;;;;;;38.70;21.43;;;;;;;;;;5082983;28;20279;-62
2024/01/10 08:47:39;;;;;;;41.20;21.20;;;;;;;;;;5089151;28;20201;-63
2024/01/10 08:50:08;;;;;;;36.60;19.83;;;;;;;;;;5084764;28;20663;-62
2024/01/10 08:52:37;;;;;;;37.40;21.13;;;;;;;;;;5085453;28;20204;-63
2024/01/10 08:55:07;;;;;;;40.33;22.60;;;;;;;;;;5083102;28;20757;-62
2024/01/10 08:57:40;;;;;;;40.80;24.00;;;;;;;;;;5082706;28;20304;-64
2024/01/10 09:00:11;;;;;;;40.63;23.33;;;;;;;;;;5087104;28;20615;-63
2024/01/10 09:02:39;;;;;;;40.13;22.83;;;;;;;;;;5081975;28;20606;-63
2024/01/10 09:05:09;;;;;;;39.93;22.13;;;;;;;;;;5062591;28;20649;-63
2024/01/10 09:07:42;;;;;;;34.37;19.17;;;;;;;;;;5073487;28;20274;-62
2024/01/10 09:10:10;;;;;;;35.40;19.87;;;;;;;;;;5085832;28;20200;-63
2024/01/10 09:12:38;;;;;;;37.67;21.20;;;;;;;;;;5068061;28;20212;-63
2024/01/10 09:15:08;;;;;;;36.57;20.63;;;;;;;;;;5086918;28;20193;-63
2024/01/10 09:17:40;;;;;;;38.07;20.67;;;;;;;;;;5082387;28;20216;-63
2024/01/10 09:20:13;;;;;;;34.37;19.93;;;;;;;;;;5085112;28;20608;-64
2024/01/10 09:22:42;;;;;;;36.73;20.87;;;;;;;;;;5069173;28;20555;-62
2024/01/10 09:25:12;;;;;;;36.67;21.50;;;;;;;;;;5088655;28;20296;-62
2024/01/10 09:27:44;;;;;;;37.67;20.63;;;;;;;;;;5073725;28;20234;-63
2024/01/10 09:30:13;;;;;;;36.87;21.00;;;;;;;;;;5087456;28;20258;-64
2024/01/10 09:32:40;;;;;;;41.63;22.13;;;;;;;;;;5081563;28;20194;-63
2024/01/10 09:35:09;;;;;;;37.67;21.97;;;;;;;;;;5082719;28;20203;-63
2024/01/10 09:37:36;;;;;;;39.40;20.37;;;;;;;;;;5081097;28;20198;-63
2024/01/10 09:40:04;;;;;;;41.47;22.57;;;;;;;;;;5078669;28;20219;-64
2024/01/10 09:42:33;;;;;;;41.43;22.50;;;;;;;;;;5081132;28;20205;-64
2024/01/10 09:45:03;;;;;;;38.53;21.53;;;;;;;;;;5080402;28;20427;-64
2024/01/10 09:47:32;;;;;;;39.27;22.63;;;;;;;;;;5082543;28;20312;-64
2024/01/10 09:50:02;;;;;;;37.83;22.93;;;;;;;;;;5080737;28;20681;-63
2024/01/10 09:52:35;;;;;;;41.93;22.20;;;;;;;;;;5084407;28;20225;-62
2024/01/10 09:55:04;;;;;;;38.67;21.13;;;;;;;;;;5060841;28;20192;-62
2024/01/10 09:57:34;;;;;;;39.80;22.23;;;;;;;;;;5084417;28;20691;-65
2024/01/10 10:00:04;;;;;;;39.67;22.07;;;;;;;;;;5086844;28;20237;-65
2024/01/10 10:02:32;;;;;;;39.03;22.30;;;;;;;;;;5089030;28;20203;-65
2024/01/10 10:05:09;;;;;;;35.50;21.67;;;;;;;;;;5088275;28;21907;-65
2024/01/10 10:07:43;;;;;;;37.80;21.53;;;;;;;;;;5087738;28;20213;-63
2024/01/10 10:10:15;;;;;;;31.00;19.40;;;;;;;;;;5085419;28;20208;-64
2024/01/10 10:12:43;;;;;;;31.53;19.30;;;;;;;;;;5089596;28;20196;-62
2024/01/10 10:15:27;;;;;;;32.67;19.20;;;;;;;;;;5085219;28;20197;-65
2024/01/10 10:17:55;;;;;;;29.27;18.43;;;;;;;;;;5070167;28;20225;-64
2024/01/10 10:20:24;;;;;;;32.10;19.03;;;;;;;;;;5087379;28;20274;-63
2024/01/10 10:22:55;;;;;;;29.27;19.57;;;;;;;;;;5054950;28;20204;-63
2024/01/10 10:25:23;;;;;;;26.77;16.57;;;;;;;;;;5084284;28;20204;-63
2024/01/10 10:27:52;;;;;;;27.53;17.03;;;;;;;;;;5083351;28;20224;-63
2024/01/10 10:30:19;;;;;;;24.70;16.33;;;;;;;;;;5086422;28;20220;-63
2024/01/10 10:32:47;;;;;;;25.10;15.47;;;;;;;;;;5084205;28;20206;-63
2024/01/10 10:35:14;;;;;;;24.80;16.13;;;;;;;;;;5088690;28;20197;-63
2024/01/10 10:38:00;;;;;;;25.87;15.80;;;;;;;;;;5088386;28;20197;-62
2024/01/10 10:40:28;;;;;;;28.90;17.27;;;;;;;;;;5084351;28;20750;-64
2024/01/10 10:42:58;;;;;;;22.07;15.73;;;;;;;;;;5087671;28;20200;-63
2024/01/10 10:45:26;;;;;;;22.87;15.90;;;;;;;;;;5072089;28;20215;-63
2024/01/10 10:47:58;;;;;;;22.97;15.70;;;;;;;;;;5086692;28;20275;-64
2024/01/10 10:50:34;;;;;;;24.60;16.07;;;;;;;;;;5083747;28;20225;-63
2024/01/10 10:53:03;;;;;;;24.97;16.80;;;;;;;;;;5087793;28;20243;-64
2024/01/10 10:55:34;;;;;;;22.23;15.83;;;;;;;;;;5086701;28;20228;-63
2024/01/10 10:58:07;;;;;;;18.97;13.83;;;;;;;;;;5087440;28;20200;-64
2024/01/10 11:00:38;;;;;;;19.97;14.17;;;;;;;;;;5089400;28;20220;-63
2024/01/10 11:03:07;;;;;;;21.27;14.40;;;;;;;;;;5091142;28;20207;-63
2024/01/10 11:05:35;;;;;;;22.87;14.43;;;;;;;;;;5092191;28;20197;-65
2024/01/10 11:08:05;;;;;;;20.67;13.27;;;;;;;;;;5085723;28;20261;-63
2024/01/10 11:10:35;;;;;;;20.87;13.60;;;;;;;;;;5088554;28;20778;-64
2024/01/10 11:13:20;;;;;;;19.23;13.30;;;;;;;;;;5088137;28;20223;-63
2024/01/10 11:16:05;;;;;;;17.50;11.20;;;;;;;;;;5085235;28;20219;-63
2024/01/10 11:18:41;;;;;;;19.70;12.17;;;;;;;;;;5084411;28;20267;-62
2024/01/10 11:21:11;;;;;;;19.43;12.47;;;;;;;;;;5090921;28;20827;-63
2024/01/10 11:23:41;;;;;;;21.97;14.23;;;;;;;;;;5086728;28;20727;-62
2024/01/10 11:26:09;;;;;;;23.73;14.13;;;;;;;;;;5086758;28;20592;-63
2024/01/10 11:28:37;;;;;;;23.30;13.93;;;;;;;;;;5083485;28;20197;-64
2024/01/10 11:31:07;;;;;;;19.60;12.63;;;;;;;;;;5065785;28;20292;-63
2024/01/10 11:33:39;;;;;;;17.33;11.10;;;;;;;;;;5087721;28;20197;-63
2024/01/10 11:36:10;;;;;;;21.27;13.03;;;;;;;;;;5086560;28;20212;-64
2024/01/10 11:38:45;;;;;;;18.97;12.77;;;;;;;;;;5072445;28;20271;-63
2024/01/10 11:41:13;;;;;;;21.20;12.87;;;;;;;;;;5084162;28;20776;-63
2024/01/10 11:43:40;;;;;;;19.73;11.67;;;;;;;;;;5087703;28;20291;-64
2024/01/10 11:46:09;;;;;;;20.27;12.40;;;;;;;;;;5086061;28;20588;-63
2024/01/10 11:48:38;;;;;;;18.67;12.40;;;;;;;;;;5082853;28;20193;-63
2024/01/10 11:51:07;;;;;;;32.40;18.57;;;;;;;;;;5086519;28;20221;-64
2024/01/10 11:53:46;;;;;;;20.60;13.10;;;;;;;;;;5070957;28;20200;-63
2024/01/10 11:56:18;;;;;;;20.23;12.60;;;;;;;;;;5084194;28;20254;-65
2024/01/10 11:59:08;;;;;;;18.73;11.60;;;;;;;;;;5072454;28;20292;-64
2024/01/10 12:01:36;;;;;;;22.17;13.40;;;;;;;;;;5089110;28;20225;-64
2024/01/10 12:04:04;;;;;;;22.13;13.40;;;;;;;;;;5084356;28;20301;-64
2024/01/10 12:06:46;;;;;;;21.00;12.93;;;;;;;;;;5090956;28;20451;-64
2024/01/10 12:09:16;;;;;;;21.57;13.23;;;;;;;;;;5087176;28;20696;-64
2024/01/10 12:11:43;;;;;;;22.33;14.03;;;;;;;;;;5071439;28;20224;-64
2024/01/10 12:14:11;;;;;;;18.77;11.73;;;;;;;;;;5088115;28;20266;-65
2024/01/10 12:16:38;;;;;;;17.20;11.00;;;;;;;;;;5084741;28;20315;-65
2024/01/10 12:19:06;;;;;;;16.07;10.77;;;;;;;;;;5081966;28;20224;-64
2024/01/10 12:21:34;;;;;;;14.63;10.53;;;;;;;;;;5069479;28;20232;-64
2024/01/10 12:24:05;;;;;;;14.93;10.43;;;;;;;;;;5087534;28;20213;-64
2024/01/10 12:26:35;;;;;;;16.40;10.63;;;;;;;;;;5089126;28;20217;-64
2024/01/10 12:29:04;;;;;;;15.30;10.50;;;;;;;;;;5081174;28;20200;-64
2024/01/10 12:31:31;;;;;;;16.83;11.20;;;;;;;;;;5087865;28;21139;-64
2024/01/10 12:34:02;;;;;;;15.80;10.73;;;;;;;;;;5086612;28;21000;-63
2024/01/10 12:36:34;;;;;;;17.23;11.17;;;;;;;;;;5082613;28;20204;-64
2024/01/10 12:39:02;;;;;;;14.83;10.07;;;;;;;;;;5083661;28;20464;-63
2024/01/10 12:41:30;;;;;;;16.53;10.97;;;;;;;;;;5090213;28;20277;-63
2024/01/10 12:44:02;;;;;;;15.83;10.83;;;;;;;;;;5085289;28;20209;-64
2024/01/10 12:46:30;;;;;;;16.73;11.30;;;;;;;;;;5082992;28;20220;-64
2024/01/10 12:49:00;;;;;;;16.10;10.80;;;;;;;;;;5089174;28;20584;-63
2024/01/10 12:51:31;;;;;;;17.27;12.00;;;;;;;;;;5087033;28;20221;-63
2024/01/10 12:53:59;;;;;;;15.30;11.50;;;;;;;;;;5081315;28;20280;-63
2024/01/10 12:56:27;;;;;;;16.97;11.17;;;;;;;;;;5086928;28;20197;-65
2024/01/10 12:58:56;;;;;;;18.63;11.30;;;;;;;;;;5084083;28;20227;-64
2024/01/10 13:01:26;;;;;;;18.00;12.17;;;;;;;;;;5082817;28;20338;-63
2024/01/10 13:03:56;;;;;;;18.53;12.07;;;;;;;;;;5085146;28;20586;-63
2024/01/10 13:06:24;;;;;;;21.53;13.47;;;;;;;;;;5072461;28;20223;-63
2024/01/10 13:08:54;;;;;;;19.47;12.67;;;;;;;;;;5089439;28;20231;-64
2024/01/10 13:11:22;;;;;;;19.93;12.63;;;;;;;;;;5065327;28;20229;-63
2024/01/10 13:13:50;;;;;;;22.17;13.30;;;;;;;;;;5085054;28;20287;-63
2024/01/10 13:16:18;;;;;;;22.37;13.67;;;;;;;;;;5083059;28;20211;-64
2024/01/10 13:18:46;;;;;;;20.40;12.83;;;;;;;;;;5080738;28;20206;-64
2024/01/10 13:21:14;;;;;;;22.83;13.67;;;;;;;;;;5067617;28;20624;-64
2024/01/10 13:23:42;;;;;;;18.90;12.27;;;;;;;;;;5080731;28;20249;-64
2024/01/10 13:26:11;;;;;;;19.63;11.97;;;;;;;;;;5085116;28;20291;-64
2024/01/10 13:28:41;;;;;;;21.53;12.70;;;;;;;;;;5081433;28;20216;-63
2024/01/10 13:31:10;;;;;;;22.60;12.17;;;;;;;;;;5081377;28;20231;-65
2024/01/10 13:33:38;;;;;;;19.93;12.03;;;;;;;;;;5066374;28;20590;-64
2024/01/10 13:36:14;;;;;;;19.53;12.23;;;;;;;;;;5084595;28;20283;-64
2024/01/10 13:38:42;;;;;;;20.20;12.10;;;;;;;;;;5093507;28;20223;-64
2024/01/10 13:41:09;;;;;;;19.90;12.97;;;;;;;;;;5068374;28;20232;-64
2024/01/10 13:43:37;;;;;;;20.90;13.80;;;;;;;;;;5088493;28;20286;-64
2024/01/10 13:46:04;;;;;;;24.47;13.90;;;;;;;;;;5083358;28;20200;-64
2024/01/10 13:48:35;;;;;;;22.47;13.70;;;;;;;;;;5086109;28;20749;-63
2024/01/10 13:51:03;;;;;;;21.93;14.10;;;;;;;;;;5087833;28;20303;-64
2024/01/10 13:53:30;;;;;;;20.60;12.90;;;;;;;;;;5089309;28;20281;-64
2024/01/10 13:55:58;;;;;;;21.17;12.90;;;;;;;;;;5068690;28;20216;-65
2024/01/10 13:58:26;;;;;;;22.43;13.10;;;;;;;;;;5085969;28;20663;-66
2024/01/10 14:00:54;;;;;;;20.47;13.00;;;;;;;;;;5083621;28;20217;-64
2024/01/10 14:03:23;;;;;;;18.87;12.37;;;;;;;;;;5067001;28;20200;-63
2024/01/10 14:05:51;;;;;;;20.60;14.83;;;;;;;;;;5084346;28;20220;-64
2024/01/10 14:08:19;;;;;;;18.70;12.20;;;;;;;;;;5085231;28;20303;-64
2024/01/10 14:10:47;;;;;;;16.83;11.40;;;;;;;;;;5070712;28;20223;-62
2024/01/10 14:13:15;;;;;;;17.90;11.97;;;;;;;;;;5068308;28;20211;-64
2024/01/10 14:15:42;;;;;;;18.60;13.13;;;;;;;;;;5066894;28;20602;-64
2024/01/10 14:18:09;;;;;;;17.63;11.80;;;;;;;;;;5088747;28;20200;-65
2024/01/10 14:20:37;;;;;;;19.23;13.53;;;;;;;;;;5084233;28;20228;-63
2024/01/10 14:23:08;;;;;;;18.43;12.17;;;;;;;;;;5070921;28;20232;-63
2024/01/10 14:25:36;;;;;;;20.50;13.67;;;;;;;;;;5085860;28;20209;-63
2024/01/10 14:28:03;;;;;;;19.77;12.73;;;;;;;;;;5063982;28;20829;-64